Time;durP1;ratioP1;P1;durP2;ratioP2;P2;SDS_P1;SDS_P2;PMS_P1;PMS_P2;Temp;Humidity;BMP_temperature;BMP_pressure;BME280_temperature;BME280_humidity;BME280_pressure;Samples;Min_cycle;Max_cycle;Signal;HPM_P1;HPM_P2
2023/07/03 00:03:01;;;;;;;17.95;9.05;;;;;;;15.89;71.94;100183.41;4897538;29;20471;-72
2023/07/03 00:06:05;;;;;;;18.30;9.90;;;;;;;15.83;71.81;100182.13;4897754;29;20081;-72
2023/07/03 00:09:09;;;;;;;19.20;9.70;;;;;;;15.75;72.11;100177.44;4897501;29;20052;-72
2023/07/03 00:12:12;;;;;;;25.48;10.85;;;;;;;15.67;71.67;100179.03;4897633;29;20134;-72
2023/07/03 00:15:15;;;;;;;22.63;10.32;;;;;;;15.66;71.75;100180.75;4897435;29;20075;-72
2023/07/03 00:18:18;;;;;;;19.00;9.70;;;;;;;15.67;71.77;100179.84;4897380;29;20079;-72
2023/07/03 00:21:22;;;;;;;21.73;10.35;;;;;;;15.70;71.63;100179.63;4897620;29;20079;-73
2023/07/03 00:24:26;;;;;;;18.70;9.68;;;;;;;15.67;71.75;100176.38;4897272;29;20054;-73
2023/07/03 00:27:29;;;;;;;22.02;9.52;;;;;;;15.62;71.83;100181.13;4897572;29;20052;-73
2023/07/03 00:30:32;;;;;;;22.58;10.23;;;;;;;15.59;71.95;100175.13;4885604;29;20483;-73
2023/07/03 00:33:35;;;;;;;18.50;9.05;;;;;;;15.63;71.97;100180.16;4885976;29;20514;-73
2023/07/03 00:36:39;;;;;;;20.60;9.57;;;;;;;15.53;72.27;100178.25;4897257;29;20081;-73
2023/07/03 00:39:42;;;;;;;19.13;9.00;;;;;;;15.42;73.03;100186.16;4897155;29;20108;-73
2023/07/03 00:42:46;;;;;;;21.85;9.60;;;;;;;15.43;73.33;100174.66;4885884;29;20100;-73
2023/07/03 00:45:49;;;;;;;19.02;9.88;;;;;;;15.51;72.93;100180.19;4896983;29;20099;-73
2023/07/03 00:48:53;;;;;;;17.65;9.70;;;;;;;15.61;71.40;100185.56;4897147;29;20107;-72
2023/07/03 00:51:57;;;;;;;24.45;9.57;;;;;;;15.61;71.43;100185.56;4896812;29;20111;-72
2023/07/03 00:55:00;;;;;;;20.48;10.65;;;;;;;15.43;72.70;100187.00;4885301;29;20517;-73
2023/07/03 00:58:03;;;;;;;21.77;9.55;;;;;;;15.54;71.42;100194.94;4897308;29;20120;-73
2023/07/03 01:01:15;;;;;;;19.08;8.63;;;;;;;15.41;72.43;100202.94;4896974;29;20169;-73
2023/07/03 01:04:27;;;;;;;20.38;10.68;;;;;;;15.36;73.17;100202.44;4885504;29;20411;-73
2023/07/03 01:07:33;;;;;;;22.23;9.98;;;;;;;15.40;72.90;100206.53;4885441;29;20084;-73
2023/07/03 01:10:38;;;;;;;21.33;9.63;;;;;;;15.48;72.47;100204.13;4885488;29;20039;-73
2023/07/03 01:13:42;;;;;;;17.17;9.65;;;;;;;15.43;73.38;100198.38;4888004;29;20542;-72
2023/07/03 01:16:48;;;;;;;17.15;9.95;;;;;;;15.43;73.73;100198.38;4900460;29;20087;-73
2023/07/03 01:19:52;;;;;;;19.73;9.52;;;;;;;15.55;72.50;100197.44;4900490;29;20141;-73
2023/07/03 01:23:07;;;;;;;18.38;9.88;;;;;;;15.59;72.76;100206.75;4897594;29;20051;-73
2023/07/03 01:26:12;;;;;;;18.10;9.00;;;;;;;15.69;71.20;100206.06;4900451;29;20100;-72
2023/07/03 01:29:17;;;;;;;18.50;9.55;;;;;;;15.80;70.85;100198.16;4900428;29;20482;-72
2023/07/03 01:32:24;;;;;;;17.38;8.65;;;;;;;15.88;69.71;100208.94;4888416;29;20075;-72
2023/07/03 01:35:29;;;;;;;20.00;9.82;;;;;;;15.75;70.36;100202.97;4899793;29;20163;-72
2023/07/03 01:38:33;;;;;;;18.58;8.82;;;;;;;15.70;70.11;100205.97;4899158;29;20440;-73
2023/07/03 01:41:37;;;;;;;16.65;9.40;;;;;;;15.62;71.56;100212.75;4888445;29;20051;-73
2023/07/03 01:44:40;;;;;;;15.93;9.02;;;;;;;15.65;72.03;100209.88;4899884;29;20048;-73
2023/07/03 01:47:44;;;;;;;17.05;9.75;;;;;;;15.63;70.97;100198.63;4900234;29;20059;-73
2023/07/03 01:50:47;;;;;;;19.77;11.10;;;;;;;15.61;71.63;100195.28;4888116;29;20077;-73
2023/07/03 01:54:12;;;;;;;17.73;9.50;;;;;;;15.59;72.65;100193.59;4899913;29;20047;-73
2023/07/03 01:57:50;;;;;;;18.70;9.32;;;;;;;15.57;73.31;100200.78;4899785;29;20107;-73
2023/07/03 02:00:59;;;;;;;21.52;9.32;;;;;;;15.56;73.90;100196.47;4899769;29;20116;-72
2023/07/03 02:04:08;;;;;;;20.88;9.88;;;;;;;15.54;74.50;100203.66;4888254;29;20063;-73
2023/07/03 02:07:12;;;;;;;17.40;9.95;;;;;;;15.46;74.92;100208.69;4887968;29;20081;-73
2023/07/03 02:10:16;;;;;;;20.95;10.30;;;;;;;15.51;74.85;100200.44;4899631;29;20100;-73
2023/07/03 02:13:20;;;;;;;19.20;8.90;;;;;;;15.46;75.13;100207.84;4888177;29;20047;-73
2023/07/03 02:16:23;;;;;;;18.35;10.20;;;;;;;15.41;75.66;100207.34;4899512;29;20123;-73
2023/07/03 02:19:28;;;;;;;19.17;10.27;;;;;;;15.44;75.70;100213.22;4899407;29;20571;-72
2023/07/03 02:22:31;;;;;;;23.92;10.60;;;;;;;15.37;76.05;100209.38;4888126;29;20108;-73
2023/07/03 02:25:35;;;;;;;21.88;10.40;;;;;;;15.35;76.51;100206.88;4887715;29;20051;-72
2023/07/03 02:28:38;;;;;;;17.33;9.55;;;;;;;15.35;76.53;100212.16;4899127;29;20046;-72
2023/07/03 02:31:42;;;;;;;19.80;9.65;;;;;;;15.24;77.24;100209.50;4887634;29;20048;-72
2023/07/03 02:34:45;;;;;;;18.42;9.40;;;;;;;15.32;77.37;100211.56;4899198;29;20051;-73
2023/07/03 02:37:48;;;;;;;17.05;9.10;;;;;;;15.37;77.13;100204.13;4899168;29;20047;-73
2023/07/03 02:40:51;;;;;;;18.48;9.60;;;;;;;15.31;77.49;100212.50;4898997;29;20063;-73
2023/07/03 02:43:58;;;;;;;18.35;8.70;;;;;;;15.25;77.89;100211.19;4898879;29;20047;-73
2023/07/03 02:47:04;;;;;;;16.20;8.05;;;;;;;15.30;77.47;100209.03;4899078;29;20048;-73
2023/07/03 02:50:10;;;;;;;17.15;9.13;;;;;;;15.32;77.16;100208.91;4887371;29;20123;-73
2023/07/03 02:53:14;;;;;;;19.50;9.45;;;;;;;15.29;77.27;100209.16;4887596;29;20073;-73
2023/07/03 02:56:18;;;;;;;19.42;8.73;;;;;;;15.32;77.25;100208.91;4887322;29;20522;-73
2023/07/03 02:59:24;;;;;;;18.42;8.07;;;;;;;15.31;76.64;100205.41;4887029;29;20051;-73
2023/07/03 03:02:31;;;;;;;16.80;8.30;;;;;;;15.42;75.13;100201.97;4887447;29;20141;-72
2023/07/03 03:05:34;;;;;;;18.90;6.57;;;;;;;15.39;66.21;100201.38;4898531;29;20088;-72
2023/07/03 03:08:37;;;;;;;15.13;5.57;;;;;;;15.49;66.51;100200.53;4887014;29;20459;-73
2023/07/03 03:11:40;;;;;;;17.05;6.70;;;;;;;15.67;65.56;100198.31;4876468;29;20563;-72
2023/07/03 03:14:46;;;;;;;17.83;5.43;;;;;;;15.70;65.06;100194.59;4886655;29;20418;-73
2023/07/03 03:17:50;;;;;;;14.77;5.28;;;;;;;15.66;61.45;100214.19;4886955;29;20146;-73
2023/07/03 03:20:53;;;;;;;;;;;;;;;15.63;61.44;100203.88;4887097;29;20260;-73
2023/07/03 03:23:56;;;;;;;18.02;5.43;;;;;;;15.81;61.44;100202.47;4898436;29;19922;-73
2023/07/03 03:27:05;;;;;;;18.55;5.45;;;;;;;15.92;59.65;100197.19;4898272;29;20100;-73
2023/07/03 03:30:09;;;;;;;17.45;5.57;;;;;;;16.00;59.08;100191.31;4898237;29;20147;-73
2023/07/03 03:33:15;;;;;;;16.42;4.82;;;;;;;15.87;57.30;100199.34;4886646;29;20047;-74
2023/07/03 03:36:22;;;;;;;15.65;4.95;;;;;;;15.73;57.45;100204.88;4897486;29;20493;-80
2023/07/03 03:39:25;;;;;;;16.88;4.32;;;;;;;15.89;58.08;100210.63;4886340;29;20124;-67
2023/07/03 03:42:28;;;;;;;13.93;4.72;;;;;;;15.96;58.16;100211.81;4898061;29;20079;-68
2023/07/03 03:45:31;;;;;;;18.33;5.00;;;;;;;16.07;57.09;100197.75;4886641;29;20086;-70
2023/07/03 03:48:35;;;;;;;14.55;4.40;;;;;;;16.17;56.81;100197.84;4897902;29;20071;-67
2023/07/03 03:51:40;;;;;;;14.00;4.50;;;;;;;16.16;57.70;100191.75;4885998;29;20095;-67
2023/07/03 03:54:46;;;;;;;16.52;4.43;;;;;;;16.14;56.74;100198.09;4886192;29;20573;-67
2023/07/03 03:57:50;;;;;;;16.30;5.05;;;;;;;16.10;56.80;100186.94;4897391;29;20083;-68
2023/07/03 04:00:56;;;;;;;16.17;4.45;;;;;;;16.11;56.39;100199.16;4896727;29;20071;-67
2023/07/03 04:04:00;;;;;;;14.63;4.82;;;;;;;16.03;56.33;100191.88;4885255;29;20153;-67
2023/07/03 04:07:03;;;;;;;20.52;5.15;;;;;;;16.10;56.15;100191.41;4897329;29;20099;-68
2023/07/03 04:10:08;;;;;;;16.35;4.97;;;;;;;16.22;55.97;100206.25;4896703;29;20498;-75
2023/07/03 04:13:12;;;;;;;15.88;4.10;;;;;;;15.75;56.32;100208.22;4896662;29;20059;-75
2023/07/03 04:16:16;;;;;;;17.75;4.70;;;;;;;15.82;57.28;100204.13;4897150;29;20063;-70
2023/07/03 04:19:19;;;;;;;17.50;5.20;;;;;;;15.88;56.63;100205.47;4897505;29;20059;-75
2023/07/03 04:22:22;;;;;;;25.23;5.07;;;;;;;15.65;56.60;100207.25;4885737;29;20514;-77
2023/07/03 04:25:26;;;;;;;12.85;3.60;;;;;;;15.88;57.10;100211.56;4897434;29;20087;-75
2023/07/03 04:28:29;;;;;;;15.23;5.32;;;;;;;15.96;56.95;100214.44;4897443;29;20537;-73
2023/07/03 04:31:33;;;;;;;18.48;5.57;;;;;;;16.07;56.82;100215.38;4897281;29;20132;-76
2023/07/03 04:35:23;;;;;;;18.20;5.13;;;;;;;15.93;56.33;100212.06;4897447;29;20048;-71
2023/07/03 04:38:27;;;;;;;20.73;5.13;;;;;;;16.01;56.72;100214.91;4896119;29;20047;-83
2023/07/03 04:41:31;;;;;;;13.93;5.13;;;;;;;15.99;56.51;100208.94;4895908;29;20129;-76
2023/07/03 04:44:34;;;;;;;16.55;4.88;;;;;;;16.01;56.40;100203.50;4896915;29;20586;-76
2023/07/03 04:47:38;;;;;;;16.85;4.40;;;;;;;15.87;56.52;100204.63;4899877;29;20055;-76
2023/07/03 04:50:41;;;;;;;18.20;5.00;;;;;;;15.98;57.02;100209.88;4901227;29;20127;-76
2023/07/03 04:53:44;;;;;;;16.63;4.53;;;;;;;15.73;56.84;100215.41;4901112;29;20076;-74
2023/07/03 04:56:48;;;;;;;15.25;5.03;;;;;;;15.73;57.47;100212.78;4901093;29;20521;-73
2023/07/03 04:59:51;;;;;;;17.17;4.93;;;;;;;15.81;56.77;100220.94;4900858;29;20439;-73
2023/07/03 05:03:25;;;;;;;16.05;5.38;;;;;;;15.83;57.60;100219.03;4900365;29;20414;-69
2023/07/03 05:06:29;;;;;;;19.40;4.63;;;;;;;15.92;57.13;100231.47;4898848;29;20080;-68
2023/07/03 05:09:33;;;;;;;15.77;3.95;;;;;;;15.94;57.01;100223.44;4898963;29;20051;-69
2023/07/03 05:12:37;;;;;;;15.60;4.68;;;;;;;16.04;56.44;100229.66;4898760;29;20047;-69
2023/07/03 05:15:40;;;;;;;15.95;4.90;;;;;;;15.95;57.30;100236.50;4899024;29;20467;-69
2023/07/03 05:18:43;;;;;;;13.20;4.40;;;;;;;16.16;56.69;100238.38;4899745;29;20067;-68
2023/07/03 05:21:47;;;;;;;16.58;4.55;;;;;;;16.21;56.33;100247.63;4900751;29;20120;-68
2023/07/03 05:24:50;;;;;;;23.40;5.30;;;;;;;16.11;56.21;100245.81;4900786;29;20063;-68
2023/07/03 05:27:54;;;;;;;15.90;4.80;;;;;;;16.06;56.69;100242.72;4900531;29;20048;-69
2023/07/03 05:30:58;;;;;;;19.13;5.43;;;;;;;16.16;56.43;100246.31;4900378;29;20104;-69
2023/07/03 05:34:02;;;;;;;20.45;4.70;;;;;;;16.17;56.19;100240.06;4900475;29;20051;-70
2023/07/03 05:37:05;;;;;;;13.85;4.20;;;;;;;16.19;56.54;100248.69;4900270;29;20519;-73
2023/07/03 05:40:10;;;;;;;16.08;4.30;;;;;;;16.09;56.71;100248.59;4900384;29;20056;-73
2023/07/03 05:43:14;;;;;;;20.52;4.88;;;;;;;16.04;56.80;100248.94;4900264;29;20123;-73
2023/07/03 05:46:19;;;;;;;16.67;5.10;;;;;;;16.08;56.44;100257.47;4900235;29;20525;-73
2023/07/03 05:49:24;;;;;;;14.35;4.40;;;;;;;16.01;56.49;100258.91;4888648;29;20514;-72
2023/07/03 05:52:28;;;;;;;15.40;4.78;;;;;;;16.04;56.97;100261.28;4900024;29;20071;-72
2023/07/03 05:55:31;;;;;;;16.15;5.05;;;;;;;15.74;57.44;100261.91;4900205;29;20059;-72
2023/07/03 05:58:36;;;;;;;18.15;4.43;;;;;;;15.78;57.58;100258.06;4899511;29;20059;-72
2023/07/03 06:01:39;;;;;;;16.65;4.57;;;;;;;15.76;57.66;100257.34;4900028;29;20051;-72
2023/07/03 06:04:43;;;;;;;17.25;5.05;;;;;;;15.79;57.64;100263.25;4900164;29;20047;-72
2023/07/03 06:07:49;;;;;;;14.30;4.78;;;;;;;15.78;57.90;100255.44;4899951;29;20059;-72
2023/07/03 06:10:52;;;;;;;15.32;4.03;;;;;;;15.85;57.95;100261.06;4899874;29;20047;-74
2023/07/03 06:13:55;;;;;;;15.82;4.15;;;;;;;15.80;57.63;100257.00;4899804;29;20096;-74
2023/07/03 06:16:59;;;;;;;14.95;4.03;;;;;;;15.98;57.38;100252.06;4898417;29;20096;-74
2023/07/03 06:20:07;;;;;;;17.70;4.57;;;;;;;16.07;57.02;100258.41;4898898;29;20055;-74
2023/07/03 06:23:10;;;;;;;15.13;4.22;;;;;;;16.27;57.13;100275.28;4887431;29;20537;-76
2023/07/03 06:26:13;;;;;;;12.13;3.88;;;;;;;16.16;56.79;100270.03;4899060;29;20438;-74
2023/07/03 06:29:16;;;;;;;14.82;3.58;;;;;;;16.27;57.11;100267.38;4898952;29;20510;-72
2023/07/03 06:32:20;;;;;;;16.98;4.47;;;;;;;16.23;56.98;100271.22;4899117;29;20047;-69
2023/07/03 06:35:24;;;;;;;18.30;4.63;;;;;;;16.30;57.53;100269.75;4899286;29;20071;-69
2023/07/03 06:38:27;;;;;;;17.45;4.50;;;;;;;16.48;57.06;100264.81;4899033;29;20090;-70
2023/07/03 06:41:32;;;;;;;14.10;4.38;;;;;;;16.59;56.68;100279.75;4899421;29;20051;-71
2023/07/03 06:44:36;;;;;;;17.88;5.20;;;;;;;16.61;56.66;100275.22;4899033;29;20051;-70
2023/07/03 06:47:39;;;;;;;14.57;4.07;;;;;;;16.42;57.15;100276.69;4899337;29;20104;-69
2023/07/03 06:50:43;;;;;;;20.45;4.90;;;;;;;16.58;56.97;100280.72;4899283;29;20063;-69
2023/07/03 06:53:46;;;;;;;17.52;4.22;;;;;;;16.55;57.07;100280.97;4899274;29;20506;-70
2023/07/03 06:56:50;;;;;;;15.50;4.90;;;;;;;16.71;56.30;100286.69;4899101;29;20043;-70
2023/07/03 06:59:53;;;;;;;12.90;3.95;;;;;;;16.90;56.39;100291.34;4899076;29;20047;-70
2023/07/03 07:02:56;;;;;;;15.38;4.05;;;;;;;16.57;56.53;100289.63;4898990;29;20087;-70
2023/07/03 07:06:11;;;;;;;16.45;5.70;;;;;;;16.70;56.30;100290.31;4899150;29;20111;-69
2023/07/03 07:09:15;;;;;;;19.30;4.63;;;;;;;16.76;56.44;100289.84;4886665;29;20047;-70
2023/07/03 07:12:18;;;;;;;15.15;4.22;;;;;;;16.81;56.64;100297.38;4898430;29;20100;-70
2023/07/03 07:15:22;;;;;;;14.13;4.35;;;;;;;16.86;56.37;100287.28;4898716;29;20047;-70
2023/07/03 07:18:25;;;;;;;15.05;3.67;;;;;;;16.54;57.22;100306.53;4898752;29;20051;-69
2023/07/03 07:21:30;;;;;;;16.25;4.28;;;;;;;16.60;56.86;100295.50;4898293;29;20136;-72
2023/07/03 07:24:33;;;;;;;18.38;4.68;;;;;;;16.73;56.66;100279.50;4898399;29;20064;-70
2023/07/03 07:27:37;;;;;;;16.58;4.25;;;;;;;16.90;56.30;100265.75;4898261;29;20103;-70
2023/07/03 07:30:40;;;;;;;15.00;4.82;;;;;;;16.88;56.01;100267.69;4898700;29;20047;-69
2023/07/03 07:33:43;;;;;;;12.55;4.45;;;;;;;16.86;56.24;100261.69;4898129;29;20545;-69
2023/07/03 07:36:47;;;;;;;15.73;4.90;;;;;;;17.02;55.93;100281.56;4898051;29;20051;-69
2023/07/03 07:39:50;;;;;;;16.73;4.72;;;;;;;17.05;55.35;100289.22;4897988;29;20044;-70
2023/07/03 07:42:53;;;;;;;14.30;4.15;;;;;;;17.26;54.82;100276.88;4897914;29;20144;-70
2023/07/03 07:45:57;;;;;;;14.55;4.65;;;;;;;17.15;55.22;100300.69;4898174;29;20439;-69
2023/07/03 07:49:01;;;;;;;18.83;4.80;;;;;;;17.23;55.43;100292.13;4897853;29;20051;-68
2023/07/03 07:52:04;;;;;;;13.18;4.28;;;;;;;17.57;53.98;100290.13;4897670;29;20059;-67
2023/07/03 07:55:09;;;;;;;10.70;4.20;;;;;;;17.64;54.27;100301.84;4897764;29;20052;-68
2023/07/03 07:58:13;;;;;;;13.45;4.25;;;;;;;17.85;53.04;100292.09;4897813;29;20128;-68
2023/07/03 08:01:16;;;;;;;19.73;4.20;;;;;;;17.68;53.50;100300.63;4897886;29;20108;-67
2023/07/03 08:04:19;;;;;;;18.63;3.95;;;;;;;17.82;51.93;100289.72;4897813;29;20529;-69
2023/07/03 08:07:22;;;;;;;15.85;4.60;;;;;;;17.68;52.19;100298.00;4897902;29;20085;-68
2023/07/03 08:10:26;;;;;;;15.05;4.60;;;;;;;17.59;52.82;100293.47;4898022;29;20043;-66
2023/07/03 08:13:31;;;;;;;12.35;3.97;;;;;;;17.79;52.28;100297.91;4897424;29;20047;-66
2023/07/03 08:16:34;;;;;;;12.70;4.38;;;;;;;17.84;52.05;100287.78;4897604;29;20123;-67
2023/07/03 08:19:38;;;;;;;13.13;3.60;;;;;;;17.69;52.03;100293.53;4897780;29;20052;-67
2023/07/03 08:22:41;;;;;;;11.68;4.05;;;;;;;17.65;52.06;100277.94;4897066;29;20079;-68
2023/07/03 08:25:51;;;;;;;10.43;4.53;;;;;;;17.60;52.19;100281.94;4897621;29;20096;-68
2023/07/03 08:28:55;;;;;;;10.85;3.78;;;;;;;17.64;52.64;100280.69;4897437;29;20134;-68
2023/07/03 08:31:58;;;;;;;13.20;4.10;;;;;;;17.87;52.98;100265.53;4897353;29;20072;-68
2023/07/03 08:35:02;;;;;;;15.15;4.22;;;;;;;18.06;52.15;100270.88;4897185;29;20132;-71
2023/07/03 08:38:05;;;;;;;13.35;4.53;;;;;;;18.06;51.71;100272.66;4897331;29;20462;-72
2023/07/03 08:41:13;;;;;;;16.65;4.07;;;;;;;18.13;51.63;100271.19;4897121;29;20051;-72
2023/07/03 08:44:16;;;;;;;10.70;3.40;;;;;;;18.20;51.74;100269.66;4897447;29;20051;-71
2023/07/03 08:47:22;;;;;;;15.38;4.47;;;;;;;18.31;51.85;100274.88;4897388;29;20048;-72
2023/07/03 08:50:28;;;;;;;12.25;3.58;;;;;;;18.40;50.55;100280.28;4896970;29;20059;-72
2023/07/03 08:53:38;;;;;;;15.85;4.95;;;;;;;18.67;49.80;100275.19;4896779;29;20124;-74
2023/07/03 08:56:42;;;;;;;12.02;4.40;;;;;;;18.69;49.43;100269.72;4897256;29;20088;-74
2023/07/03 08:59:46;;;;;;;13.52;4.40;;;;;;;18.73;49.58;100264.06;4897084;29;20088;-73
2023/07/03 09:02:56;;;;;;;12.93;3.92;;;;;;;18.45;50.43;100270.16;4896095;29;20051;-73
2023/07/03 09:06:02;;;;;;;12.48;4.13;;;;;;;18.52;50.51;100272.09;4896623;29;20467;-73
2023/07/03 09:09:22;;;;;;;11.50;3.90;;;;;;;18.70;50.67;100263.47;4896847;29;20055;-73
2023/07/03 09:12:57;;;;;;;14.73;4.65;;;;;;;18.97;50.17;100258.34;4897181;29;20170;-73
2023/07/03 09:16:11;;;;;;;13.27;4.35;;;;;;;18.93;50.13;100259.59;4882841;29;20527;-74
2023/07/03 09:19:20;;;;;;;10.55;3.72;;;;;;;18.98;49.22;100267.94;4896993;29;20105;-74
2023/07/03 09:22:48;;;;;;;9.75;3.63;;;;;;;19.12;48.52;100285.25;4897116;29;20055;-74
2023/07/03 09:26:04;;;;;;;10.50;4.00;;;;;;;18.69;48.85;100272.38;4897267;29;20100;-74
2023/07/03 09:29:35;;;;;;;10.98;4.57;;;;;;;18.82;48.25;100272.97;4897023;29;20128;-74
2023/07/03 09:32:39;;;;;;;13.32;4.53;;;;;;;18.80;48.90;100274.94;4897044;29;20061;-74
2023/07/03 09:35:43;;;;;;;13.25;4.13;;;;;;;18.85;48.13;100277.16;4900599;29;20139;-74
2023/07/03 09:38:52;;;;;;;12.20;4.53;;;;;;;18.76;47.96;100284.97;4888986;29;20146;-74
2023/07/03 09:42:14;;;;;;;13.23;3.95;;;;;;;18.64;47.73;100270.16;4900318;29;20052;-75
2023/07/03 09:45:21;;;;;;;11.13;4.25;;;;;;;18.79;47.99;100279.41;4900178;29;20059;-73
2023/07/03 09:48:26;;;;;;;10.93;4.00;;;;;;;18.98;48.00;100290.97;4900041;29;20120;-74
2023/07/03 09:51:30;;;;;;;9.50;3.45;;;;;;;18.92;47.23;100284.44;4899759;29;20132;-72
2023/07/03 09:54:42;;;;;;;10.65;4.03;;;;;;;19.10;46.21;100294.31;4900127;29;20506;-76
2023/07/03 09:57:47;;;;;;;9.50;3.65;;;;;;;18.88;45.05;100288.31;4899722;29;20120;-75
2023/07/03 10:00:56;;;;;;;9.27;3.58;;;;;;;18.94;45.67;100310.78;4900088;29;20095;-75
2023/07/03 10:04:10;;;;;;;10.02;3.33;;;;;;;19.04;45.11;100291.22;4900160;29;20077;-76
2023/07/03 10:07:16;;;;;;;11.00;3.80;;;;;;;19.06;44.50;100317.59;4899816;29;20568;-74
2023/07/03 10:10:21;;;;;;;8.93;4.00;;;;;;;19.04;45.68;100299.19;4899839;29;20153;-66
2023/07/03 10:13:37;;;;;;;9.07;3.45;;;;;;;19.09;42.62;100290.00;4899980;29;20463;-74
2023/07/03 10:16:42;;;;;;;7.68;3.30;;;;;;;19.08;42.93;100283.00;4899745;29;20048;-74
2023/07/03 10:19:50;;;;;;;8.73;3.50;;;;;;;19.16;42.22;100286.63;4899654;29;20044;-75
2023/07/03 10:22:56;;;;;;;7.63;3.17;;;;;;;19.35;42.16;100279.63;4899806;29;20063;-74
2023/07/03 10:26:05;;;;;;;7.75;3.38;;;;;;;19.32;40.70;100288.69;4899663;29;20474;-74
2023/07/03 10:29:28;;;;;;;11.05;4.38;;;;;;;19.42;41.21;100278.06;4899538;29;20108;-75
2023/07/03 10:32:35;;;;;;;8.70;3.15;;;;;;;19.28;40.38;100274.91;4899634;29;20059;-74
2023/07/03 10:35:41;;;;;;;8.63;3.30;;;;;;;19.45;41.44;100278.63;4899362;29;20477;-73
2023/07/03 10:38:56;;;;;;;9.02;3.13;;;;;;;19.42;41.27;100283.38;4899438;29;20047;-66
2023/07/03 10:42:05;;;;;;;10.65;3.60;;;;;;;19.51;40.86;100285.16;4899257;29;20566;-67
2023/07/03 10:45:12;;;;;;;12.40;4.43;;;;;;;19.64;41.12;100292.84;4899099;29;20534;-67
2023/07/03 10:48:27;;;;;;;10.32;3.55;;;;;;;19.78;40.81;100280.91;4899449;29;20120;-66
2023/07/03 10:51:39;;;;;;;7.85;3.25;;;;;;;20.03;40.65;100277.59;4899247;29;20132;-66
2023/07/03 10:54:46;;;;;;;11.07;3.75;;;;;;;20.16;40.92;100259.50;4899132;29;20051;-66
2023/07/03 10:57:56;;;;;;;8.18;3.05;;;;;;;20.17;40.49;100258.53;4898918;29;20047;-66
2023/07/03 11:01:39;;;;;;;7.70;3.38;;;;;;;20.34;40.92;100266.69;4898985;29;20522;-66
2023/07/03 11:05:16;;;;;;;9.63;3.15;;;;;;;20.54;40.06;100268.25;4899144;29;20091;-67
2023/07/03 11:08:46;;;;;;;7.90;3.72;;;;;;;20.49;39.42;100270.50;4898897;29;20076;-66
2023/07/03 11:12:04;;;;;;;12.52;4.45;;;;;;;20.14;40.23;100255.34;4898907;29;20407;-67
2023/07/03 11:15:45;;;;;;;8.52;3.35;;;;;;;20.17;40.26;100253.22;4897584;29;20104;-67
2023/07/03 11:19:17;;;;;;;8.95;3.53;;;;;;;20.20;40.09;100255.59;4898091;29;20056;-75
2023/07/03 11:22:35;;;;;;;9.85;4.00;;;;;;;20.21;40.72;100256.41;4898353;29;20456;-83
2023/07/03 11:25:57;;;;;;;12.13;2.97;;;;;;;20.33;40.77;100244.59;4898266;29;20079;-83
2023/07/03 11:29:03;;;;;;;8.02;3.80;;;;;;;20.49;41.00;100249.25;4898383;29;20151;-83
2023/07/03 11:32:08;;;;;;;11.05;3.58;;;;;;;20.44;39.25;100255.00;4876365;29;20162;-83
2023/07/03 11:35:14;;;;;;;12.20;3.42;;;;;;;20.63;39.42;100248.75;4886750;29;20087;-82
2023/07/03 11:38:20;;;;;;;6.47;2.97;;;;;;;20.64;39.49;100247.78;4898378;29;20063;-82
2023/07/03 11:41:48;;;;;;;8.23;3.28;;;;;;;20.64;39.43;100247.78;4898169;29;20054;-82
2023/07/03 11:45:00;;;;;;;10.68;3.35;;;;;;;20.54;38.97;100231.06;4886694;29;20055;-80
2023/07/03 11:48:17;;;;;;;7.07;3.47;;;;;;;20.50;39.57;100229.66;4898278;29;20059;-80
2023/07/03 11:51:36;;;;;;;9.93;3.58;;;;;;;20.41;39.72;100255.28;4885882;29;20091;-82
2023/07/03 11:54:43;;;;;;;8.10;3.40;;;;;;;20.37;39.73;100250.44;4891658;29;20115;-82
2023/07/03 11:57:55;;;;;;;7.35;3.30;;;;;;;20.46;39.13;100236.28;4914053;29;20582;-80
2023/07/03 12:01:25;;;;;;;9.30;3.13;;;;;;;20.73;39.18;100234.56;4916040;29;20051;-79
2023/07/03 12:04:47;;;;;;;9.70;3.80;;;;;;;20.87;39.29;100242.81;4916488;29;20086;-84
2023/07/03 12:07:51;;;;;;;8.68;3.63;;;;;;;20.74;38.91;100236.22;4916095;29;20103;-82
2023/07/03 12:10:58;;;;;;;11.25;3.78;;;;;;;20.80;39.35;100254.19;4916145;29;20088;-79
2023/07/03 12:14:01;;;;;;;9.35;3.28;;;;;;;20.83;39.30;100248.59;4916106;29;20047;-80
2023/07/03 12:17:28;;;;;;;8.43;3.25;;;;;;;20.91;39.65;100248.66;4915491;29;20128;-80
2023/07/03 12:20:32;;;;;;;6.80;3.60;;;;;;;20.92;38.64;100239.69;4907667;29;20468;-80
2023/07/03 12:23:43;;;;;;;6.80;3.00;;;;;;;20.94;39.25;100245.69;4897583;29;20047;-82
2023/07/03 12:27:06;;;;;;;8.95;3.25;;;;;;;20.85;39.76;100246.63;4897563;29;20059;-79
2023/07/03 12:30:21;;;;;;;7.20;3.40;;;;;;;20.78;39.57;100237.59;4897551;29;20055;-80
2023/07/03 12:33:26;;;;;;;7.80;3.78;;;;;;;20.77;40.22;100249.19;4902247;29;20517;-79
2023/07/03 12:36:35;;;;;;;8.73;3.67;;;;;;;20.83;40.08;100251.25;4891557;29;20534;-79
2023/07/03 12:39:50;;;;;;;7.68;3.55;;;;;;;21.24;39.44;100243.59;4885869;29;20104;-78
2023/07/03 12:42:57;;;;;;;9.77;3.30;;;;;;;21.01;40.10;100238.78;4897328;29;20048;-80
2023/07/03 12:46:00;;;;;;;9.35;4.10;;;;;;;21.05;38.71;100234.81;4897721;29;20063;-79
2023/07/03 12:49:12;;;;;;;9.30;3.17;;;;;;;20.88;38.70;100228.53;4897748;29;20426;-80
2023/07/03 12:52:18;;;;;;;11.57;3.58;;;;;;;21.17;38.98;100230.06;4885912;29;20060;-79
2023/07/03 12:55:23;;;;;;;8.35;3.45;;;;;;;21.41;37.60;100231.25;4897386;29;20483;-79
2023/07/03 12:58:26;;;;;;;7.93;2.92;;;;;;;21.43;36.50;100232.75;4897233;29;20529;-79
2023/07/03 13:01:31;;;;;;;7.95;3.67;;;;;;;21.30;36.60;100238.47;4897196;29;20406;-79
2023/07/03 13:04:35;;;;;;;8.23;3.00;;;;;;;21.41;36.05;100226.78;4885558;29;20695;-78
2023/07/03 13:07:43;;;;;;;8.23;3.20;;;;;;;21.37;35.47;100238.72;4897604;29;20052;-79
2023/07/03 13:11:02;;;;;;;8.35;3.33;;;;;;;21.62;34.74;100225.56;4900609;29;20050;-78
2023/07/03 13:14:14;;;;;;;9.80;3.60;;;;;;;21.51;35.15;100234.66;4899921;29;20139;-78
2023/07/03 13:17:28;;;;;;;11.55;3.33;;;;;;;21.56;34.55;100232.34;4900322;29;20091;-79
2023/07/03 13:20:31;;;;;;;8.25;3.53;;;;;;;21.81;34.40;100238.59;4899428;29;20467;-80
2023/07/03 13:23:40;;;;;;;8.38;3.80;;;;;;;21.81;34.60;100243.94;4899994;29;20174;-79
2023/07/03 13:26:51;;;;;;;8.60;3.65;;;;;;;21.63;34.00;100235.19;4899930;29;20104;-78
2023/07/03 13:30:14;;;;;;;9.63;3.88;;;;;;;21.37;34.69;100233.38;4900197;29;20563;-79
2023/07/03 13:33:29;;;;;;;8.80;3.92;;;;;;;21.38;35.50;100235.06;4899466;29;20059;-78
2023/07/03 13:36:57;;;;;;;9.95;3.63;;;;;;;21.54;34.69;100224.53;4900052;29;20509;-79
2023/07/03 13:40:00;;;;;;;6.35;3.28;;;;;;;21.73;34.58;100233.25;4899906;29;20567;-80
2023/07/03 13:43:04;;;;;;;6.78;3.42;;;;;;;21.66;34.35;100229.56;4900255;29;20143;-79
2023/07/03 13:46:08;;;;;;;8.00;3.30;;;;;;;21.41;35.47;100223.25;4899965;29;20530;-77
2023/07/03 13:49:17;;;;;;;7.70;3.55;;;;;;;21.63;34.97;100233.34;4899513;29;20108;-84
2023/07/03 13:52:21;;;;;;;5.90;3.28;;;;;;;21.97;34.66;100228.03;4899709;29;20054;-82
2023/07/03 13:55:24;;;;;;;9.13;3.53;;;;;;;22.20;33.61;100224.78;4899346;29;20048;-77
2023/07/03 13:58:28;;;;;;;8.57;3.47;;;;;;;22.40;33.87;100225.31;4898072;29;20047;-76
2023/07/03 14:01:33;;;;;;;9.30;3.50;;;;;;;22.47;33.12;100223.69;4899471;29;20136;-74
2023/07/03 14:04:37;;;;;;;6.82;2.75;;;;;;;22.73;33.54;100218.22;4899331;29;20108;-72
2023/07/03 14:07:41;;;;;;;8.18;3.70;;;;;;;22.65;33.50;100216.34;4909857;29;20047;-73
2023/07/03 14:10:44;;;;;;;6.95;3.15;;;;;;;22.51;33.64;100209.03;4902795;29;20139;-70
2023/07/03 14:13:49;;;;;;;6.75;3.13;;;;;;;22.72;33.87;100219.22;4905206;29;20087;-75
2023/07/03 14:16:53;;;;;;;6.70;3.00;;;;;;;22.35;34.61;100206.34;4903412;29;20064;-76
2023/07/03 14:19:58;;;;;;;7.78;3.63;;;;;;;22.44;33.98;100211.53;4901071;29;20407;-74
2023/07/03 14:23:03;;;;;;;10.05;3.50;;;;;;;22.70;33.66;100199.88;4887023;29;20139;-74
2023/07/03 14:26:09;;;;;;;8.35;4.00;;;;;;;22.31;34.27;100195.19;4915027;29;20509;-76